sensor_id;sensor_type;location;lat;lon;timestamp;noise_LAeq;noise_LA_min;noise_LA_max;noise_LA01;noise_LA95
72858;Laerm;62742;52.136;4.500;2023-02-28T00:01:07;47.65;44.62;50.72;;
72858;Laerm;62742;52.136;4.500;2023-02-28T00:03:34;46.89;43.15;53.08;;
72858;Laerm;62742;52.136;4.500;2023-02-28T00:06:06;47.54;42.68;54.00;;
72858;Laerm;62742;52.136;4.500;2023-02-28T00:08:33;47.62;43.30;53.38;;
72858;Laerm;62742;52.136;4.500;2023-02-28T00:11:06;47.51;43.52;53.39;;
72858;Laerm;62742;52.136;4.500;2023-02-28T00:13:36;48.30;43.74;53.34;;
72858;Laerm;62742;52.136;4.500;2023-02-28T00:16:10;47.95;44.25;52.24;;
72858;Laerm;62742;52.136;4.500;2023-02-28T00:18:38;47.63;44.51;52.02;;
72858;Laerm;62742;52.136;4.500;2023-02-28T00:21:05;47.69;44.36;51.71;;
72858;Laerm;62742;52.136;4.500;2023-02-28T00:23:33;48.15;44.99;51.72;;
72858;Laerm;62742;52.136;4.500;2023-02-28T00:26:00;47.83;45.21;50.81;;
72858;Laerm;62742;52.136;4.500;2023-02-28T00:28:26;47.31;44.77;49.97;;
72858;Laerm;62742;52.136;4.500;2023-02-28T00:30:53;47.66;44.84;50.64;;
72858;Laerm;62742;52.136;4.500;2023-02-28T00:33:19;47.48;44.84;49.67;;
72858;Laerm;62742;52.136;4.500;2023-02-28T00:35:46;47.75;44.90;50.49;;
72858;Laerm;62742;52.136;4.500;2023-02-28T00:38:14;47.80;44.90;50.82;;
72858;Laerm;62742;52.136;4.500;2023-02-28T00:40:40;49.40;44.90;60.68;;
72858;Laerm;62742;52.136;4.500;2023-02-28T00:43:07;48.30;44.64;50.62;;
72858;Laerm;62742;52.136;4.500;2023-02-28T00:45:34;48.83;44.17;59.97;;
72858;Laerm;62742;52.136;4.500;2023-02-28T00:48:00;48.26;44.41;51.12;;
72858;Laerm;62742;52.136;4.500;2023-02-28T00:50:27;47.76;44.56;50.31;;
72858;Laerm;62742;52.136;4.500;2023-02-28T00:52:53;47.75;43.83;50.56;;
72858;Laerm;62742;52.136;4.500;2023-02-28T00:55:19;47.69;44.12;50.23;;
72858;Laerm;62742;52.136;4.500;2023-02-28T00:57:46;47.24;43.31;50.55;;
72858;Laerm;62742;52.136;4.500;2023-02-28T01:00:13;48.07;43.59;51.17;;
72858;Laerm;62742;52.136;4.500;2023-02-28T01:02:39;48.53;44.61;51.34;;
72858;Laerm;62742;52.136;4.500;2023-02-28T01:05:05;48.35;44.39;51.31;;
72858;Laerm;62742;52.136;4.500;2023-02-28T01:07:32;47.91;44.43;57.58;;
72858;Laerm;62742;52.136;4.500;2023-02-28T01:09:58;47.83;44.71;50.22;;
72858;Laerm;62742;52.136;4.500;2023-02-28T01:12:25;47.67;44.82;50.38;;
72858;Laerm;62742;52.136;4.500;2023-02-28T01:14:51;47.62;44.94;50.18;;
72858;Laerm;62742;52.136;4.500;2023-02-28T01:17:17;47.60;44.87;50.41;;
72858;Laerm;62742;52.136;4.500;2023-02-28T01:19:44;47.55;44.04;50.21;;
72858;Laerm;62742;52.136;4.500;2023-02-28T01:22:10;47.77;44.71;50.41;;
72858;Laerm;62742;52.136;4.500;2023-02-28T01:24:37;48.22;45.21;51.37;;
72858;Laerm;62742;52.136;4.500;2023-02-28T01:27:03;47.89;44.72;51.11;;
72858;Laerm;62742;52.136;4.500;2023-02-28T01:29:30;47.72;44.76;53.42;;
72858;Laerm;62742;52.136;4.500;2023-02-28T01:31:56;48.00;44.61;54.88;;
72858;Laerm;62742;52.136;4.500;2023-02-28T01:34:23;47.52;44.24;50.81;;
72858;Laerm;62742;52.136;4.500;2023-02-28T01:36:49;49.64;43.33;62.94;;
72858;Laerm;62742;52.136;4.500;2023-02-28T01:39:16;47.54;43.54;53.81;;
72858;Laerm;62742;52.136;4.500;2023-02-28T01:41:42;48.47;43.24;63.11;;
72858;Laerm;62742;52.136;4.500;2023-02-28T01:45:02;47.89;44.97;51.49;;
72858;Laerm;62742;52.136;4.500;2023-02-28T01:47:36;48.74;45.33;51.60;;
72858;Laerm;62742;52.136;4.500;2023-02-28T01:50:10;48.42;45.05;51.49;;
72858;Laerm;62742;52.136;4.500;2023-02-28T01:52:38;48.42;44.30;51.55;;
72858;Laerm;62742;52.136;4.500;2023-02-28T01:55:07;48.42;44.53;51.29;;
72858;Laerm;62742;52.136;4.500;2023-02-28T01:57:42;47.93;45.01;50.40;;
72858;Laerm;62742;52.136;4.500;2023-02-28T02:00:16;47.80;45.05;50.05;;
72858;Laerm;62742;52.136;4.500;2023-02-28T02:02:49;48.35;45.23;50.67;;
72858;Laerm;62742;52.136;4.500;2023-02-28T02:05:27;48.46;45.34;51.32;;
72858;Laerm;62742;52.136;4.500;2023-02-28T02:07:58;48.39;45.16;51.08;;
72858;Laerm;62742;52.136;4.500;2023-02-28T02:10:39;48.51;45.12;62.99;;
72858;Laerm;62742;52.136;4.500;2023-02-28T02:18:54;47.73;44.93;50.48;;
72858;Laerm;62742;52.136;4.500;2023-02-28T02:27:23;46.99;44.46;49.52;;
72858;Laerm;62742;52.136;4.500;2023-02-28T02:39:07;47.18;43.76;49.71;;
72858;Laerm;62742;52.136;4.500;2023-02-28T02:41:50;46.99;44.17;54.63;;
72858;Laerm;62742;52.136;4.500;2023-02-28T02:47:10;47.24;44.66;50.18;;
72858;Laerm;62742;52.136;4.500;2023-02-28T02:49:43;48.02;42.93;62.61;;
72858;Laerm;62742;52.136;4.500;2023-02-28T02:52:16;50.28;44.08;62.01;;
72858;Laerm;62742;52.136;4.500;2023-02-28T02:54:48;47.19;44.21;49.85;;
72858;Laerm;62742;52.136;4.500;2023-02-28T02:57:27;49.20;42.36;61.44;;
72858;Laerm;62742;52.136;4.500;2023-02-28T02:59:57;47.40;43.94;54.63;;
72858;Laerm;62742;52.136;4.500;2023-02-28T03:02:27;48.44;41.10;61.02;;
72858;Laerm;62742;52.136;4.500;2023-02-28T03:05:07;47.46;44.62;50.62;;
72858;Laerm;62742;52.136;4.500;2023-02-28T03:07:34;47.98;43.89;61.83;;
72858;Laerm;62742;52.136;4.500;2023-02-28T03:10:01;47.72;44.12;51.47;;
72858;Laerm;62742;52.136;4.500;2023-02-28T03:12:48;47.58;44.24;50.01;;
72858;Laerm;62742;52.136;4.500;2023-02-28T03:15:28;47.89;44.39;51.42;;
72858;Laerm;62742;52.136;4.500;2023-02-28T03:18:10;48.41;45.14;51.16;;
72858;Laerm;62742;52.136;4.500;2023-02-28T03:21:03;47.87;44.88;51.31;;
72858;Laerm;62742;52.136;4.500;2023-02-28T03:26:22;50.23;44.70;61.83;;
72858;Laerm;62742;52.136;4.500;2023-02-28T03:29:20;48.12;44.83;50.69;;
72858;Laerm;62742;52.136;4.500;2023-02-28T03:32:10;47.99;44.90;50.34;;
72858;Laerm;62742;52.136;4.500;2023-02-28T03:34:50;47.84;43.57;62.00;;
72858;Laerm;62742;52.136;4.500;2023-02-28T03:37:25;47.86;45.32;50.48;;
72858;Laerm;62742;52.136;4.500;2023-02-28T03:40:04;47.88;44.96;50.33;;
72858;Laerm;62742;52.136;4.500;2023-02-28T03:42:39;48.04;45.24;50.49;;
72858;Laerm;62742;52.136;4.500;2023-02-28T03:45:20;48.01;44.84;50.36;;
72858;Laerm;62742;52.136;4.500;2023-02-28T03:47:53;48.28;45.40;50.56;;
72858;Laerm;62742;52.136;4.500;2023-02-28T03:53:25;48.00;45.02;50.90;;
72858;Laerm;62742;52.136;4.500;2023-02-28T03:56:17;47.87;45.31;50.22;;
72858;Laerm;62742;52.136;4.500;2023-02-28T03:58:57;47.97;44.73;50.73;;
72858;Laerm;62742;52.136;4.500;2023-02-28T04:01:39;47.60;44.72;50.51;;
72858;Laerm;62742;52.136;4.500;2023-02-28T04:04:09;48.98;42.61;63.69;;
72858;Laerm;62742;52.136;4.500;2023-02-28T04:06:37;47.48;44.06;52.11;;
72858;Laerm;62742;52.136;4.500;2023-02-28T04:09:06;47.35;44.55;49.99;;
72858;Laerm;62742;52.136;4.500;2023-02-28T04:11:40;47.32;44.35;50.85;;
72858;Laerm;62742;52.136;4.500;2023-02-28T04:14:09;47.68;44.64;51.01;;
72858;Laerm;62742;52.136;4.500;2023-02-28T04:16:40;47.98;44.90;50.61;;
72858;Laerm;62742;52.136;4.500;2023-02-28T04:19:08;48.05;45.11;50.54;;
72858;Laerm;62742;52.136;4.500;2023-02-28T04:21:41;47.19;44.12;59.93;;
72858;Laerm;62742;52.136;4.500;2023-02-28T04:24:21;47.03;44.06;50.26;;
72858;Laerm;62742;52.136;4.500;2023-02-28T04:26:52;47.34;43.95;50.07;;
72858;Laerm;62742;52.136;4.500;2023-02-28T04:29:26;48.19;44.34;61.79;;
72858;Laerm;62742;52.136;4.500;2023-02-28T04:31:54;47.37;44.78;50.09;;
72858;Laerm;62742;52.136;4.500;2023-02-28T04:34:28;47.24;43.74;50.41;;
72858;Laerm;62742;52.136;4.500;2023-02-28T04:36:56;47.70;44.06;60.77;;
72858;Laerm;62742;52.136;4.500;2023-02-28T04:39:24;47.60;44.44;51.57;;
72858;Laerm;62742;52.136;4.500;2023-02-28T04:41:51;47.51;44.28;52.76;;
72858;Laerm;62742;52.136;4.500;2023-02-28T04:44:17;47.39;44.69;49.67;;
72858;Laerm;62742;52.136;4.500;2023-02-28T04:46:44;47.49;44.20;52.59;;
72858;Laerm;62742;52.136;4.500;2023-02-28T04:49:12;47.44;43.51;51.28;;
72858;Laerm;62742;52.136;4.500;2023-02-28T04:51:39;47.44;44.23;50.27;;
72858;Laerm;62742;52.136;4.500;2023-02-28T04:54:07;47.57;44.62;50.28;;
72858;Laerm;62742;52.136;4.500;2023-02-28T04:56:33;47.50;44.70;61.53;;
72858;Laerm;62742;52.136;4.500;2023-02-28T04:59:00;47.66;44.70;60.96;;
72858;Laerm;62742;52.136;4.500;2023-02-28T05:01:35;47.58;45.07;50.15;;
72858;Laerm;62742;52.136;4.500;2023-02-28T05:04:04;47.70;44.79;50.50;;
72858;Laerm;62742;52.136;4.500;2023-02-28T05:06:32;47.82;44.58;50.33;;
72858;Laerm;62742;52.136;4.500;2023-02-28T05:09:00;48.00;45.24;50.53;;
72858;Laerm;62742;52.136;4.500;2023-02-28T05:11:31;47.81;44.81;50.04;;
72858;Laerm;62742;52.136;4.500;2023-02-28T05:14:09;47.52;44.48;52.29;;
72858;Laerm;62742;52.136;4.500;2023-02-28T05:16:36;47.45;44.57;61.55;;
72858;Laerm;62742;52.136;4.500;2023-02-28T05:19:03;47.28;44.28;49.80;;
72858;Laerm;62742;52.136;4.500;2023-02-28T05:21:39;47.22;44.46;50.56;;
72858;Laerm;62742;52.136;4.500;2023-02-28T05:24:12;47.18;44.21;50.68;;
72858;Laerm;62742;52.136;4.500;2023-02-28T05:26:42;47.31;44.71;50.21;;
72858;Laerm;62742;52.136;4.500;2023-02-28T05:29:09;47.42;44.70;50.77;;
72858;Laerm;62742;52.136;4.500;2023-02-28T05:31:38;47.38;44.72;49.88;;
72858;Laerm;62742;52.136;4.500;2023-02-28T05:34:04;47.43;44.04;50.55;;
72858;Laerm;62742;52.136;4.500;2023-02-28T05:36:31;47.31;44.03;50.32;;
72858;Laerm;62742;52.136;4.500;2023-02-28T05:38:58;48.48;44.68;61.66;;
72858;Laerm;62742;52.136;4.500;2023-02-28T05:41:24;47.61;44.66;54.10;;
72858;Laerm;62742;52.136;4.500;2023-02-28T05:43:52;47.63;44.65;50.18;;
72858;Laerm;62742;52.136;4.500;2023-02-28T05:46:18;47.69;44.39;50.20;;
72858;Laerm;62742;52.136;4.500;2023-02-28T05:48:47;48.44;45.45;50.82;;
72858;Laerm;62742;52.136;4.500;2023-02-28T05:51:15;48.03;45.10;50.90;;
72858;Laerm;62742;52.136;4.500;2023-02-28T05:53:42;47.43;44.47;50.68;;
72858;Laerm;62742;52.136;4.500;2023-02-28T05:56:08;47.43;44.53;50.19;;
72858;Laerm;62742;52.136;4.500;2023-02-28T05:58:35;47.31;44.47;49.86;;
72858;Laerm;62742;52.136;4.500;2023-02-28T06:01:20;47.84;44.58;51.28;;
72858;Laerm;62742;52.136;4.500;2023-02-28T06:03:47;47.87;45.26;50.27;;
72858;Laerm;62742;52.136;4.500;2023-02-28T06:06:14;48.30;45.49;50.74;;
72858;Laerm;62742;52.136;4.500;2023-02-28T06:08:40;47.98;44.82;50.46;;
72858;Laerm;62742;52.136;4.500;2023-02-28T06:11:06;47.67;44.27;50.04;;
72858;Laerm;62742;52.136;4.500;2023-02-28T06:13:33;47.40;43.72;50.20;;
72858;Laerm;62742;52.136;4.500;2023-02-28T06:16:03;47.48;44.25;50.42;;
72858;Laerm;62742;52.136;4.500;2023-02-28T06:18:29;47.03;44.26;49.49;;
72858;Laerm;62742;52.136;4.500;2023-02-28T06:20:56;47.29;44.45;49.55;;
72858;Laerm;62742;52.136;4.500;2023-02-28T06:23:22;47.56;43.98;51.57;;
72858;Laerm;62742;52.136;4.500;2023-02-28T06:25:49;47.39;44.03;50.66;;
72858;Laerm;62742;52.136;4.500;2023-02-28T06:28:16;47.26;44.05;50.12;;
72858;Laerm;62742;52.136;4.500;2023-02-28T06:30:42;47.74;44.67;50.82;;
72858;Laerm;62742;52.136;4.500;2023-02-28T06:33:09;47.77;44.71;50.67;;
72858;Laerm;62742;52.136;4.500;2023-02-28T06:35:35;47.77;44.22;50.68;;
72858;Laerm;62742;52.136;4.500;2023-02-28T06:38:01;47.62;44.84;53.17;;
72858;Laerm;62742;52.136;4.500;2023-02-28T06:40:29;47.62;45.00;50.35;;
72858;Laerm;62742;52.136;4.500;2023-02-28T06:42:58;47.59;45.10;50.19;;
72858;Laerm;62742;52.136;4.500;2023-02-28T06:45:24;47.92;45.05;50.70;;
72858;Laerm;62742;52.136;4.500;2023-02-28T06:47:52;47.55;44.44;50.10;;
72858;Laerm;62742;52.136;4.500;2023-02-28T06:50:20;48.09;45.00;50.71;;
72858;Laerm;62742;52.136;4.500;2023-02-28T06:52:47;47.72;45.05;50.38;;
72858;Laerm;62742;52.136;4.500;2023-02-28T06:55:13;48.24;45.27;50.57;;
72858;Laerm;62742;52.136;4.500;2023-02-28T06:57:40;47.75;45.09;50.46;;
72858;Laerm;62742;52.136;4.500;2023-02-28T07:00:08;47.69;44.78;50.02;;
72858;Laerm;62742;52.136;4.500;2023-02-28T07:02:36;47.52;44.44;50.33;;
72858;Laerm;62742;52.136;4.500;2023-02-28T07:05:05;47.50;44.00;50.09;;
72858;Laerm;62742;52.136;4.500;2023-02-28T07:07:33;47.55;44.25;50.33;;
72858;Laerm;62742;52.136;4.500;2023-02-28T07:10:00;48.06;44.36;65.44;;
72858;Laerm;62742;52.136;4.500;2023-02-28T07:12:26;47.03;43.89;65.85;;
72858;Laerm;62742;52.136;4.500;2023-02-28T07:14:53;47.15;43.74;49.56;;
72858;Laerm;62742;52.136;4.500;2023-02-28T07:17:21;46.77;43.41;49.43;;
72858;Laerm;62742;52.136;4.500;2023-02-28T07:19:48;47.38;44.88;49.72;;
72858;Laerm;62742;52.136;4.500;2023-02-28T07:22:14;48.45;43.87;65.21;;
72858;Laerm;62742;52.136;4.500;2023-02-28T07:24:41;47.71;44.21;50.10;;
72858;Laerm;62742;52.136;4.500;2023-02-28T07:27:08;47.67;44.48;50.23;;
72858;Laerm;62742;52.136;4.500;2023-02-28T07:29:34;47.77;44.41;50.07;;
72858;Laerm;62742;52.136;4.500;2023-02-28T07:32:00;47.19;43.27;50.00;;
72858;Laerm;62742;52.136;4.500;2023-02-28T07:34:27;47.34;44.52;50.34;;
72858;Laerm;62742;52.136;4.500;2023-02-28T07:36:54;47.19;43.96;49.99;;
72858;Laerm;62742;52.136;4.500;2023-02-28T07:39:22;47.68;44.17;54.64;;
72858;Laerm;62742;52.136;4.500;2023-02-28T07:41:48;47.91;44.34;50.49;;
72858;Laerm;62742;52.136;4.500;2023-02-28T07:44:15;47.90;45.05;50.61;;
72858;Laerm;62742;52.136;4.500;2023-02-28T07:46:42;47.43;43.94;50.33;;
72858;Laerm;62742;52.136;4.500;2023-02-28T07:49:09;47.66;44.10;66.89;;
72858;Laerm;62742;52.136;4.500;2023-02-28T07:51:35;47.17;43.97;50.47;;
72858;Laerm;62742;52.136;4.500;2023-02-28T07:54:02;47.24;43.49;55.33;;
72858;Laerm;62742;52.136;4.500;2023-02-28T07:56:29;47.06;43.22;57.62;;
72858;Laerm;62742;52.136;4.500;2023-02-28T07:58:55;47.85;43.71;50.81;;
72858;Laerm;62742;52.136;4.500;2023-02-28T08:01:21;47.82;44.08;50.30;;
72858;Laerm;62742;52.136;4.500;2023-02-28T08:03:48;47.39;43.94;50.36;;
72858;Laerm;62742;52.136;4.500;2023-02-28T08:06:24;48.42;43.55;66.36;;
72858;Laerm;62742;52.136;4.500;2023-02-28T08:08:51;47.37;44.28;56.73;;
72858;Laerm;62742;52.136;4.500;2023-02-28T08:11:18;47.45;44.15;50.02;;
72858;Laerm;62742;52.136;4.500;2023-02-28T08:13:45;47.61;44.44;50.41;;
72858;Laerm;62742;52.136;4.500;2023-02-28T08:16:13;47.64;44.75;55.09;;
72858;Laerm;62742;52.136;4.500;2023-02-28T08:18:43;52.00;42.97;66.84;;
72858;Laerm;62742;52.136;4.500;2023-02-28T08:21:10;48.18;44.82;50.94;;
72858;Laerm;62742;52.136;4.500;2023-02-28T08:23:38;47.77;44.21;50.65;;
72858;Laerm;62742;52.136;4.500;2023-02-28T08:26:05;47.70;44.61;50.82;;
72858;Laerm;62742;52.136;4.500;2023-02-28T08:28:32;47.56;44.03;50.28;;
72858;Laerm;62742;52.136;4.500;2023-02-28T08:30:59;47.63;44.47;50.45;;
72858;Laerm;62742;52.136;4.500;2023-02-28T08:33:27;47.80;44.73;52.44;;
72858;Laerm;62742;52.136;4.500;2023-02-28T08:35:56;47.60;44.65;50.36;;
72858;Laerm;62742;52.136;4.500;2023-02-28T08:38:24;47.56;45.00;50.64;;
72858;Laerm;62742;52.136;4.500;2023-02-28T08:40:59;47.68;44.74;50.41;;
72858;Laerm;62742;52.136;4.500;2023-02-28T08:43:27;47.53;44.07;50.84;;
72858;Laerm;62742;52.136;4.500;2023-02-28T08:45:57;47.59;44.82;50.41;;
72858;Laerm;62742;52.136;4.500;2023-02-28T08:48:30;47.40;44.54;50.16;;
72858;Laerm;62742;52.136;4.500;2023-02-28T08:51:04;47.27;44.49;50.62;;
72858;Laerm;62742;52.136;4.500;2023-02-28T08:53:32;47.22;44.20;53.24;;
72858;Laerm;62742;52.136;4.500;2023-02-28T08:56:09;47.17;44.36;49.95;;
72858;Laerm;62742;52.136;4.500;2023-02-28T08:58:40;47.06;44.23;49.80;;
72858;Laerm;62742;52.136;4.500;2023-02-28T09:01:19;47.21;44.21;54.36;;
72858;Laerm;62742;52.136;4.500;2023-02-28T09:03:48;47.53;44.18;53.65;;
72858;Laerm;62742;52.136;4.500;2023-02-28T09:06:18;47.13;44.13;50.12;;
72858;Laerm;62742;52.136;4.500;2023-02-28T09:08:45;47.61;41.91;62.94;;
72858;Laerm;62742;52.136;4.500;2023-02-28T09:11:12;47.07;43.54;61.43;;
72858;Laerm;62742;52.136;4.500;2023-02-28T09:13:40;46.82;43.20;49.70;;
72858;Laerm;62742;52.136;4.500;2023-02-28T09:16:12;46.64;43.84;49.46;;
72858;Laerm;62742;52.136;4.500;2023-02-28T09:18:40;46.80;44.02;50.19;;
72858;Laerm;62742;52.136;4.500;2023-02-28T09:21:10;46.80;43.45;50.00;;
72858;Laerm;62742;52.136;4.500;2023-02-28T09:23:38;46.89;43.81;50.64;;
72858;Laerm;62742;52.136;4.500;2023-02-28T09:26:04;46.93;43.80;50.97;;
72858;Laerm;62742;52.136;4.500;2023-02-28T09:28:31;46.98;43.84;61.16;;
72858;Laerm;62742;52.136;4.500;2023-02-28T09:30:58;47.18;43.53;50.44;;
72858;Laerm;62742;52.136;4.500;2023-02-28T09:33:26;47.05;43.94;50.24;;
72858;Laerm;62742;52.136;4.500;2023-02-28T09:36:00;47.23;43.63;51.27;;
72858;Laerm;62742;52.136;4.500;2023-02-28T09:38:27;47.08;44.26;50.60;;
72858;Laerm;62742;52.136;4.500;2023-02-28T09:41:00;47.59;44.01;50.51;;
72858;Laerm;62742;52.136;4.500;2023-02-28T09:43:38;47.22;43.98;50.16;;
72858;Laerm;62742;52.136;4.500;2023-02-28T09:46:36;47.38;44.74;50.63;;
72858;Laerm;62742;52.136;4.500;2023-02-28T09:49:13;47.51;44.33;53.68;;
72858;Laerm;62742;52.136;4.500;2023-02-28T09:52:21;47.41;44.26;50.15;;
72858;Laerm;62742;52.136;4.500;2023-02-28T09:54:46;47.09;44.06;49.96;;
72858;Laerm;62742;52.136;4.500;2023-02-28T09:57:36;48.53;44.40;64.15;;
72858;Laerm;62742;52.136;4.500;2023-02-28T10:00:24;47.12;43.67;49.79;;
72858;Laerm;62742;52.136;4.500;2023-02-28T10:06:10;47.74;44.85;52.44;;
72858;Laerm;62742;52.136;4.500;2023-02-28T10:08:52;47.33;43.75;50.47;;
72858;Laerm;62742;52.136;4.500;2023-02-28T10:11:25;46.93;42.93;51.03;;
72858;Laerm;62742;52.136;4.500;2023-02-28T10:13:56;47.96;45.20;51.28;;
72858;Laerm;62742;52.136;4.500;2023-02-28T10:16:39;47.68;44.19;56.51;;
72858;Laerm;62742;52.136;4.500;2023-02-28T10:19:26;48.40;44.21;52.63;;
72858;Laerm;62742;52.136;4.500;2023-02-28T10:22:17;49.00;44.82;52.47;;
72858;Laerm;62742;52.136;4.500;2023-02-28T10:24:49;49.28;44.82;52.70;;
72858;Laerm;62742;52.136;4.500;2023-02-28T10:27:21;49.50;43.56;53.18;;
72858;Laerm;62742;52.136;4.500;2023-02-28T10:29:52;48.05;43.76;52.21;;
72858;Laerm;62742;52.136;4.500;2023-02-28T10:32:28;47.80;44.03;51.29;;
72858;Laerm;62742;52.136;4.500;2023-02-28T10:35:23;48.36;43.66;51.62;;
72858;Laerm;62742;52.136;4.500;2023-02-28T10:37:55;48.41;44.50;51.50;;
72858;Laerm;62742;52.136;4.500;2023-02-28T10:43:21;47.24;44.08;58.51;;
72858;Laerm;62742;52.136;4.500;2023-02-28T10:48:41;49.25;43.71;57.98;;
72858;Laerm;62742;52.136;4.500;2023-02-28T10:51:19;47.55;43.43;57.85;;
72858;Laerm;62742;52.136;4.500;2023-02-28T10:53:55;46.45;43.52;54.03;;
72858;Laerm;62742;52.136;4.500;2023-02-28T10:56:24;46.57;43.65;52.24;;
72858;Laerm;62742;52.136;4.500;2023-02-28T11:03:52;46.52;43.61;53.51;;
72858;Laerm;62742;52.136;4.500;2023-02-28T11:06:28;48.01;43.97;51.86;;
72858;Laerm;62742;52.136;4.500;2023-02-28T11:09:00;47.81;44.09;52.66;;
72858;Laerm;62742;52.136;4.500;2023-02-28T11:11:30;47.93;44.29;53.66;;
72858;Laerm;62742;52.136;4.500;2023-02-28T11:14:05;48.97;44.44;57.93;;
72858;Laerm;62742;52.136;4.500;2023-02-28T11:16:37;47.75;44.69;50.87;;
72858;Laerm;62742;52.136;4.500;2023-02-28T11:19:25;47.28;44.04;53.34;;
72858;Laerm;62742;52.136;4.500;2023-02-28T11:21:58;46.65;43.26;49.91;;
72858;Laerm;62742;52.136;4.500;2023-02-28T11:24:30;47.28;43.59;53.60;;
72858;Laerm;62742;52.136;4.500;2023-02-28T11:27:00;47.17;43.66;51.88;;
72858;Laerm;62742;52.136;4.500;2023-02-28T11:29:32;46.48;43.49;51.96;;
72858;Laerm;62742;52.136;4.500;2023-02-28T11:32:22;46.15;42.49;54.33;;
72858;Laerm;62742;52.136;4.500;2023-02-28T11:37:37;45.93;42.55;58.20;;
72858;Laerm;62742;52.136;4.500;2023-02-28T11:40:19;46.30;42.88;53.88;;
72858;Laerm;62742;52.136;4.500;2023-02-28T11:51:34;46.71;42.83;52.27;;
72858;Laerm;62742;52.136;4.500;2023-02-28T12:06:38;46.12;42.59;51.83;;
72858;Laerm;62742;52.136;4.500;2023-02-28T12:12:48;45.88;42.76;51.43;;
72858;Laerm;62742;52.136;4.500;2023-02-28T12:25:09;46.18;42.97;50.11;;
72858;Laerm;62742;52.136;4.500;2023-02-28T12:27:17;46.43;42.89;52.01;;
72858;Laerm;62742;52.136;4.500;2023-02-28T12:32:39;46.48;43.25;50.56;;
72858;Laerm;62742;52.136;4.500;2023-02-28T12:35:14;46.36;43.03;53.25;;
72858;Laerm;62742;52.136;4.500;2023-02-28T12:38:08;46.67;42.88;50.05;;
72858;Laerm;62742;52.136;4.500;2023-02-28T12:40:55;45.90;42.71;51.62;;
72858;Laerm;62742;52.136;4.500;2023-02-28T12:43:32;45.86;43.09;50.69;;
72858;Laerm;62742;52.136;4.500;2023-02-28T12:46:09;45.81;42.75;50.06;;
72858;Laerm;62742;52.136;4.500;2023-02-28T12:48:46;46.43;42.99;50.21;;
72858;Laerm;62742;52.136;4.500;2023-02-28T12:51:16;46.10;43.01;53.41;;
72858;Laerm;62742;52.136;4.500;2023-02-28T12:53:49;46.09;42.79;50.05;;
72858;Laerm;62742;52.136;4.500;2023-02-28T13:10:51;46.66;43.34;51.25;;
72858;Laerm;62742;52.136;4.500;2023-02-28T13:13:27;46.58;43.33;50.95;;
72858;Laerm;62742;52.136;4.500;2023-02-28T13:16:06;45.93;42.31;49.50;;
72858;Laerm;62742;52.136;4.500;2023-02-28T13:18:45;46.45;42.42;51.55;;
72858;Laerm;62742;52.136;4.500;2023-02-28T13:21:29;45.97;43.27;52.00;;
72858;Laerm;62742;52.136;4.500;2023-02-28T13:24:05;46.74;43.32;52.05;;
72858;Laerm;62742;52.136;4.500;2023-02-28T13:39:49;47.87;43.03;54.50;;
72858;Laerm;62742;52.136;4.500;2023-02-28T13:42:23;48.14;41.76;54.67;;
72858;Laerm;62742;52.136;4.500;2023-02-28T13:53:15;47.17;43.58;55.47;;
72858;Laerm;62742;52.136;4.500;2023-02-28T13:58:54;47.37;43.67;57.10;;
72858;Laerm;62742;52.136;4.500;2023-02-28T14:01:50;47.12;42.98;54.50;;
72858;Laerm;62742;52.136;4.500;2023-02-28T14:07:04;48.36;43.28;56.65;;
72858;Laerm;62742;52.136;4.500;2023-02-28T14:09:38;49.31;43.14;56.31;;
72858;Laerm;62742;52.136;4.500;2023-02-28T14:15:47;47.29;44.28;55.28;;
72858;Laerm;62742;52.136;4.500;2023-02-28T14:18:25;47.56;43.91;54.93;;
72858;Laerm;62742;52.136;4.500;2023-02-28T14:20:57;48.24;45.36;55.62;;
72858;Laerm;62742;52.136;4.500;2023-02-28T14:33:18;46.98;42.65;55.21;;
72858;Laerm;62742;52.136;4.500;2023-02-28T14:38:24;47.00;43.89;54.23;;
72858;Laerm;62742;52.136;4.500;2023-02-28T14:40:55;47.01;42.34;53.46;;
72858;Laerm;62742;52.136;4.500;2023-02-28T14:43:27;47.64;43.40;55.20;;
72858;Laerm;62742;52.136;4.500;2023-02-28T14:46:06;47.51;44.19;54.39;;
72858;Laerm;62742;52.136;4.500;2023-02-28T14:48:34;47.97;45.05;53.58;;
72858;Laerm;62742;52.136;4.500;2023-02-28T14:51:01;48.06;44.69;54.06;;
72858;Laerm;62742;52.136;4.500;2023-02-28T14:53:35;47.89;44.55;54.41;;
72858;Laerm;62742;52.136;4.500;2023-02-28T14:56:03;48.03;45.16;53.46;;
72858;Laerm;62742;52.136;4.500;2023-02-28T14:58:32;47.35;44.69;52.59;;
72858;Laerm;62742;52.136;4.500;2023-02-28T15:01:03;47.56;44.45;53.04;;
72858;Laerm;62742;52.136;4.500;2023-02-28T15:03:37;52.64;44.93;57.81;;
72858;Laerm;62742;52.136;4.500;2023-02-28T15:06:13;55.31;44.71;58.63;;
72858;Laerm;62742;52.136;4.500;2023-02-28T15:08:40;50.25;44.87;55.51;;
72858;Laerm;62742;52.136;4.500;2023-02-28T15:11:11;49.89;44.01;55.28;;
72858;Laerm;62742;52.136;4.500;2023-02-28T15:13:46;49.44;43.66;57.24;;
72858;Laerm;62742;52.136;4.500;2023-02-28T15:18:53;50.52;45.35;55.01;;
72858;Laerm;62742;52.136;4.500;2023-02-28T15:21:22;51.00;42.19;56.64;;
72858;Laerm;62742;52.136;4.500;2023-02-28T15:24:07;53.04;45.35;57.04;;
72858;Laerm;62742;52.136;4.500;2023-02-28T15:26:43;54.76;44.83;58.66;;
72858;Laerm;62742;52.136;4.500;2023-02-28T15:29:23;49.23;44.10;55.80;;
72858;Laerm;62742;52.136;4.500;2023-02-28T15:34:41;49.16;43.20;55.08;;
72858;Laerm;62742;52.136;4.500;2023-02-28T15:40:15;50.73;44.67;55.80;;
72858;Laerm;62742;52.136;4.500;2023-02-28T15:42:43;53.33;45.97;58.39;;
72858;Laerm;62742;52.136;4.500;2023-02-28T15:45:49;53.43;45.47;57.38;;
72858;Laerm;62742;52.136;4.500;2023-02-28T15:48:22;48.68;44.86;56.10;;
72858;Laerm;62742;52.136;4.500;2023-02-28T15:50:55;48.12;44.97;54.77;;
72858;Laerm;62742;52.136;4.500;2023-02-28T15:53:35;48.28;45.12;54.94;;
72858;Laerm;62742;52.136;4.500;2023-02-28T15:56:28;48.53;44.74;54.35;;
72858;Laerm;62742;52.136;4.500;2023-02-28T15:59:00;49.17;45.07;54.70;;
72858;Laerm;62742;52.136;4.500;2023-02-28T16:01:33;51.67;45.16;56.63;;
72858;Laerm;62742;52.136;4.500;2023-02-28T16:04:12;52.06;45.10;56.62;;
72858;Laerm;62742;52.136;4.500;2023-02-28T16:06:45;52.60;45.56;57.17;;
72858;Laerm;62742;52.136;4.500;2023-02-28T16:09:16;54.33;45.26;57.44;;
72858;Laerm;62742;52.136;4.500;2023-02-28T16:11:48;54.33;45.82;56.87;;
72858;Laerm;62742;52.136;4.500;2023-02-28T16:14:22;54.55;45.89;58.39;;
72858;Laerm;62742;52.136;4.500;2023-02-28T16:16:54;53.01;45.56;56.53;;
72858;Laerm;62742;52.136;4.500;2023-02-28T16:19:21;48.84;44.43;55.82;;
72858;Laerm;62742;52.136;4.500;2023-02-28T16:21:48;47.97;44.62;54.92;;
72858;Laerm;62742;52.136;4.500;2023-02-28T16:24:15;48.70;43.33;55.33;;
72858;Laerm;62742;52.136;4.500;2023-02-28T16:26:47;47.77;43.95;53.81;;
72858;Laerm;62742;52.136;4.500;2023-02-28T16:29:33;47.96;44.48;53.50;;
72858;Laerm;62742;52.136;4.500;2023-02-28T16:32:04;48.21;44.44;55.48;;
72858;Laerm;62742;52.136;4.500;2023-02-28T16:34:31;48.08;43.79;55.23;;
72858;Laerm;62742;52.136;4.500;2023-02-28T16:36:58;47.24;43.96;54.40;;
72858;Laerm;62742;52.136;4.500;2023-02-28T16:39:24;47.12;44.61;54.86;;